Gibsonton, Florida
Current Conditions -  °F | °C
As of 6:58 PM on Friday 24 Oct 2014 (Local Time) from KMCF Reporting Station
Clear Clear  
Wind Chill: 74°   Ceiling: Unl
Heat Index: 74°   Visibility: 10mi
Dew Point: 61°   Wind: 7mph
Humidity: 63%   Direction: 50°NE
Pressure: 29.9"   Gusts: NA
Location:  27.85°N, 82.38°W
Report Text: KMCF 242258Z AUTO 05006KT 10SM CLR 24/16 A2990 RMK AO2 SLP128 T02360161
Loading
Personal Weather Stations






























Interactive Weather Map New forecast layout! Learn more

10-Day Weather Forecast

Advertisements
Track Severe Weather on mobile